Terminal Aerodrome Forecast
Issued by NWS Upton, NY

Home | Current Version | Previous Version | Text Only | Print | Product List | Glossary On
Versions: 1 2 3 4 5 6 7 8 9 10 11 12 13 14 15 16 17 18 19 20 21 22 23 24 25 26 27 28 29 30 31
844
FTUS41 KOKX 311321 AAA
TAFISP
TAF AMD
KISP 311321Z 3113/0112 24004KT 4SM BR VCFG OVC003
     FM311400 32005KT 6SM BR BKN025
     FM311500 32005KT P6SM SCT040
     FM311800 22008KT P6SM SCT045
     FM312100 22007KT P6SM FEW080
     FM010000 VRB03KT P6SM FEW080
     FM010800 02005KT P6SM FEW080
      AMD NOT SKED=

USA.gov is the U.S. government's official web portal to all federal, state and local government web resources and services.